createdAt,value
2022-11-27T00:00:23.548Z,20.48
2022-11-27T00:01:28.550Z,20.73
2022-11-27T00:02:33.306Z,18.83
2022-11-27T00:03:40.392Z,18.02
2022-11-27T00:04:43.452Z,18.87
2022-11-27T00:05:58.988Z,19.60
2022-11-27T00:07:01.702Z,22.37
2022-11-27T00:08:04.523Z,18.10
2022-11-27T00:09:12.554Z,18.58
2022-11-27T00:10:15.302Z,19.10
2022-11-27T00:11:21.532Z,31.58
2022-11-27T00:12:24.267Z,19.92
2022-11-27T00:13:26.945Z,19.85
2022-11-27T00:14:29.551Z,18.10
2022-11-27T00:15:32.379Z,23.77
2022-11-27T00:16:35.102Z,26.23
2022-11-27T00:17:38.366Z,20.95
2022-11-27T00:18:42.303Z,19.35
2022-11-27T00:19:45.001Z,17.15
2022-11-27T00:20:47.661Z,17.42
2022-11-27T00:21:50.413Z,18.70
2022-11-27T00:22:53.055Z,19.45
2022-11-27T00:23:58.381Z,22.75
2022-11-27T00:25:01.091Z,17.33
2022-11-27T00:26:04.540Z,19.85
2022-11-27T00:27:07.459Z,20.48
2022-11-27T00:28:10.210Z,19.67
2022-11-27T00:29:13.020Z,19.85
2022-11-27T00:30:15.894Z,20.05
2022-11-27T00:31:27.634Z,18.45
2022-11-27T00:32:30.413Z,19.15
2022-11-27T00:33:33.717Z,20.85
2022-11-27T00:34:36.363Z,20.48
2022-11-27T00:35:39.789Z,18.95
2022-11-27T00:36:46.567Z,20.50
2022-11-27T00:37:51.437Z,20.45
2022-11-27T00:38:55.149Z,19.80
2022-11-27T00:39:58.079Z,20.10
2022-11-27T00:41:36.961Z,20.10
2022-11-27T00:42:39.676Z,16.70
2022-11-27T00:43:44.820Z,19.05
2022-11-27T00:44:48.374Z,17.77
2022-11-27T00:45:51.044Z,20.95
2022-11-27T00:46:53.901Z,20.45
2022-11-27T00:47:56.567Z,21.33
2022-11-27T00:49:00.991Z,21.75
2022-11-27T00:50:04.480Z,20.92
2022-11-27T00:51:09.674Z,19.95
2022-11-27T00:52:12.700Z,20.30
2022-11-27T00:53:15.828Z,18.10
2022-11-27T00:54:20.769Z,20.90
2022-11-27T00:55:25.852Z,21.37
2022-11-27T00:56:38.173Z,21.12
2022-11-27T00:57:40.968Z,17.90
2022-11-27T00:58:44.104Z,19.70
2022-11-27T00:59:46.781Z,17.77
2022-11-27T01:01:00.742Z,18.60
2022-11-27T01:02:03.499Z,23.25
2022-11-27T01:03:06.415Z,22.05
2022-11-27T01:04:13.445Z,22.05
2022-11-27T01:05:16.381Z,18.48
2022-11-27T01:06:20.261Z,20.55
2022-11-27T01:07:23.123Z,18.95
2022-11-27T01:08:26.580Z,18.60
2022-11-27T01:09:29.481Z,20.12
2022-11-27T01:10:32.135Z,19.50
2022-11-27T01:11:35.930Z,19.73
2022-11-27T01:12:38.649Z,18.42
2022-11-27T01:13:42.012Z,16.62
2022-11-27T01:14:44.654Z,18.92
2022-11-27T01:15:47.967Z,21.50
2022-11-27T01:16:50.786Z,22.15
2022-11-27T01:17:53.465Z,20.12
2022-11-27T01:18:58.111Z,19.80
2022-11-27T01:20:00.732Z,16.48
2022-11-27T01:21:04.302Z,21.87
2022-11-27T01:22:06.894Z,16.85
2022-11-27T01:23:09.620Z,17.60
2022-11-27T01:24:14.454Z,18.83
2022-11-27T01:25:17.012Z,18.42
2022-11-27T01:26:19.895Z,19.05
2022-11-27T01:27:22.548Z,18.40
2022-11-27T01:28:25.289Z,23.45
2022-11-27T01:29:27.893Z,20.37
2022-11-27T01:30:30.734Z,18.95
2022-11-27T01:31:34.760Z,17.08
2022-11-27T01:32:37.461Z,18.42
2022-11-27T01:33:40.504Z,19.15
2022-11-27T01:34:43.137Z,19.30
2022-11-27T01:35:56.691Z,16.50
2022-11-27T01:36:59.416Z,18.40
2022-11-27T01:38:02.251Z,16.42
2022-11-27T01:39:05.650Z,17.27
2022-11-27T01:40:09.215Z,19.95
2022-11-27T01:41:16.495Z,18.55
2022-11-27T01:42:19.249Z,21.37
2022-11-27T01:43:56.829Z,20.48
2022-11-27T01:44:59.576Z,18.75
2022-11-27T01:46:02.480Z,15.35
2022-11-27T01:47:25.173Z,17.23
2022-11-27T01:48:27.971Z,15.95
2022-11-27T01:49:35.891Z,17.80
2022-11-27T01:50:40.494Z,18.20
2022-11-27T01:52:14.290Z,17.33
2022-11-27T01:53:19.813Z,17.65
2022-11-27T01:54:26.420Z,18.45
2022-11-27T01:55:41.214Z,21.35
2022-11-27T01:56:49.175Z,19.85
2022-11-27T01:58:15.304Z,21.58
2022-11-27T01:59:19.078Z,18.45
2022-11-27T02:00:22.462Z,18.52
2022-11-27T02:01:26.439Z,15.15
2022-11-27T02:02:29.276Z,19.98
2022-11-27T02:03:32.974Z,16.37
2022-11-27T02:04:35.932Z,14.57
2022-11-27T02:05:38.767Z,20.60
2022-11-27T02:06:41.720Z,18.58
2022-11-27T02:07:46.217Z,17.12
2022-11-27T02:08:48.979Z,17.60
2022-11-27T02:09:52.346Z,16.90
2022-11-27T02:10:57.493Z,17.58
2022-11-27T02:12:26.953Z,20.27
2022-11-27T02:13:38.458Z,16.83
2022-11-27T02:14:47.310Z,16.40
2022-11-27T02:16:02.073Z,21.27
2022-11-27T02:17:32.452Z,16.25
2022-11-27T02:18:54.492Z,15.82
2022-11-27T02:20:21.691Z,18.37
2022-11-27T02:21:51.841Z,14.77
2022-11-27T02:23:22.573Z,15.95
2022-11-27T02:24:50.143Z,15.75
2022-11-27T02:26:19.492Z,19.23
2022-11-27T02:27:37.091Z,15.07
2022-11-27T02:29:17.900Z,18.33
2022-11-27T02:30:20.901Z,17.87
2022-11-27T02:31:40.569Z,16.17
2022-11-27T02:32:59.494Z,18.83
2022-11-27T02:34:13.935Z,18.45
2022-11-27T02:35:29.017Z,18.92
2022-11-27T02:36:34.295Z,16.80
2022-11-27T02:37:53.656Z,19.55
2022-11-27T02:39:22.129Z,17.60
2022-11-27T02:40:32.253Z,16.12
2022-11-27T02:41:42.413Z,19.35
2022-11-27T02:43:02.896Z,19.73
2022-11-27T02:44:09.531Z,17.90
2022-11-27T02:45:16.532Z,17.83
2022-11-27T02:46:21.009Z,20.52
2022-11-27T02:47:24.288Z,17.95
2022-11-27T02:48:35.011Z,18.17
2022-11-27T02:49:39.694Z,17.12
2022-11-27T02:50:45.371Z,17.33
2022-11-27T02:51:59.348Z,23.05
2022-11-27T02:53:08.014Z,16.87
2022-11-27T02:54:18.857Z,17.52
2022-11-27T02:55:27.913Z,17.62
2022-11-27T02:56:32.815Z,17.23
2022-11-27T02:57:39.414Z,17.80
2022-11-27T02:58:43.060Z,20.52
2022-11-27T02:59:46.780Z,20.65
2022-11-27T03:00:50.934Z,21.48
2022-11-27T03:01:59.530Z,22.65
2022-11-27T03:03:07.499Z,23.05
2022-11-27T03:04:16.385Z,22.60
2022-11-27T03:05:23.095Z,22.33
2022-11-27T03:06:33.947Z,23.65
2022-11-27T03:07:41.676Z,25.67
2022-11-27T03:08:55.131Z,22.20
2022-11-27T03:10:04.099Z,22.83
2022-11-27T03:11:11.971Z,24.27
2022-11-27T03:12:16.696Z,22.55
2022-11-27T03:13:19.515Z,23.33
2022-11-27T03:14:25.113Z,26.62
2022-11-27T03:15:37.830Z,24.80
2022-11-27T03:16:58.388Z,23.50
2022-11-27T03:18:21.109Z,22.85
2022-11-27T03:19:41.581Z,23.35
2022-11-27T03:20:49.548Z,20.98
2022-11-27T03:21:58.709Z,22.33
2022-11-27T03:23:01.345Z,22.13
2022-11-27T03:24:04.457Z,23.75
2022-11-27T03:25:07.529Z,23.98
2022-11-27T03:26:10.405Z,21.48
2022-11-27T03:27:19.089Z,20.45
2022-11-27T03:28:22.823Z,23.30
2022-11-27T03:29:39.397Z,24.40
2022-11-27T03:30:42.199Z,22.05
2022-11-27T03:31:45.314Z,23.40
2022-11-27T03:32:48.206Z,19.42
2022-11-27T03:33:51.140Z,23.73
2022-11-27T03:34:54.852Z,24.65
2022-11-27T03:35:57.607Z,22.13
2022-11-27T03:37:01.276Z,23.60
2022-11-27T03:38:04.379Z,26.33
2022-11-27T03:39:07.211Z,22.77
2022-11-27T03:40:12.014Z,23.98
2022-11-27T03:41:42.689Z,25.30
2022-11-27T03:43:00.301Z,25.12
2022-11-27T03:44:26.974Z,25.15
2022-11-27T03:45:38.532Z,23.60
2022-11-27T03:46:54.074Z,25.55
2022-11-27T03:48:34.246Z,31.30
2022-11-27T03:50:09.029Z,25.30
2022-11-27T03:51:17.421Z,27.30
2022-11-27T03:52:28.655Z,24.70
2022-11-27T03:53:37.184Z,26.60
2022-11-27T03:55:13.775Z,25.75
2022-11-27T03:56:51.541Z,27.40
2022-11-27T03:58:03.261Z,24.25
2022-11-27T04:00:21.012Z,24.45
2022-11-27T04:01:26.598Z,25.42
2022-11-27T04:02:47.599Z,27.62
2022-11-27T04:03:50.450Z,21.45
2022-11-27T04:04:53.141Z,24.45
2022-11-27T04:05:56.011Z,26.62
2022-11-27T04:06:58.972Z,24.80
2022-11-27T04:08:01.695Z,26.60
2022-11-27T04:09:05.297Z,24.92
2022-11-27T04:10:09.214Z,25.23
2022-11-27T04:11:12.449Z,25.60
2022-11-27T04:12:15.139Z,23.73
2022-11-27T04:13:18.101Z,28.50
2022-11-27T04:14:20.861Z,24.25
2022-11-27T04:15:23.577Z,24.40
2022-11-27T04:16:26.441Z,27.15
2022-11-27T04:17:29.625Z,26.98
2022-11-27T04:18:34.185Z,25.77
2022-11-27T04:19:36.933Z,27.33
2022-11-27T04:20:39.613Z,24.67
2022-11-27T04:21:42.292Z,27.77
2022-11-27T04:22:44.993Z,25.60
2022-11-27T04:23:47.783Z,25.83
2022-11-27T04:24:51.173Z,24.83
2022-11-27T04:25:53.932Z,22.17
2022-11-27T04:26:56.572Z,29.12
2022-11-27T04:27:59.219Z,22.45
2022-11-27T04:29:02.172Z,24.25
2022-11-27T04:30:05.531Z,27.80
2022-11-27T04:31:08.517Z,21.90
2022-11-27T04:32:11.245Z,25.12
2022-11-27T04:33:14.088Z,25.92
2022-11-27T04:34:16.850Z,23.67
2022-11-27T04:35:19.487Z,24.05
2022-11-27T04:36:26.654Z,23.75
2022-11-27T04:37:29.312Z,28.23
2022-11-27T04:38:31.978Z,25.23
2022-11-27T04:39:34.672Z,21.83
2022-11-27T04:40:37.364Z,23.55
2022-11-27T04:41:40.215Z,23.00
2022-11-27T04:42:43.638Z,24.55
2022-11-27T04:43:46.302Z,22.17
2022-11-27T04:44:48.890Z,22.85
2022-11-27T04:45:51.873Z,23.27
2022-11-27T04:46:55.341Z,23.92
2022-11-27T04:47:58.164Z,23.70
2022-11-27T04:49:00.785Z,24.05
2022-11-27T04:50:03.933Z,27.23
2022-11-27T04:51:06.700Z,22.48
2022-11-27T04:52:11.032Z,21.92
2022-11-27T04:53:13.775Z,20.10
2022-11-27T04:54:16.478Z,17.83
2022-11-27T04:55:19.256Z,18.35
2022-11-27T04:56:22.079Z,20.35
2022-11-27T04:57:24.888Z,22.27
2022-11-27T04:58:27.637Z,23.30
2022-11-27T04:59:30.489Z,19.05
2022-11-27T05:00:33.323Z,22.50
2022-11-27T05:01:36.319Z,22.40
2022-11-27T05:02:39.817Z,20.73
2022-11-27T05:03:42.535Z,24.98
2022-11-27T05:04:45.369Z,21.75
2022-11-27T05:05:56.196Z,21.55
2022-11-27T05:06:58.913Z,20.00
2022-11-27T05:08:01.856Z,25.92
2022-11-27T05:09:05.150Z,19.90
2022-11-27T05:10:08.907Z,19.50
2022-11-27T05:11:14.352Z,23.77
2022-11-27T05:12:17.824Z,28.02
2022-11-27T05:13:20.740Z,28.20
2022-11-27T05:14:29.620Z,28.87
2022-11-27T05:15:32.616Z,26.35
2022-11-27T05:16:35.549Z,28.67
2022-11-27T05:17:38.400Z,28.00
2022-11-27T05:18:44.572Z,29.35
2022-11-27T05:19:47.477Z,36.28
2022-11-27T05:21:05.136Z,29.30
2022-11-27T05:22:08.056Z,30.90
2022-11-27T05:23:11.022Z,30.08
2022-11-27T05:24:15.148Z,29.50
2022-11-27T05:25:18.055Z,27.55
2022-11-27T05:26:20.859Z,29.27
2022-11-27T05:27:23.805Z,27.13
2022-11-27T05:28:27.395Z,29.98
2022-11-27T05:29:30.342Z,30.25
2022-11-27T05:30:33.108Z,30.62
2022-11-27T05:31:36.876Z,30.45
2022-11-27T05:32:39.703Z,32.80
2022-11-27T05:33:42.586Z,32.47
2022-11-27T05:34:45.430Z,36.53
2022-11-27T05:35:48.363Z,32.40
2022-11-27T05:36:51.272Z,35.50
2022-11-27T05:37:54.172Z,31.25
2022-11-27T05:38:57.115Z,31.23
2022-11-27T05:40:00.059Z,31.98
2022-11-27T05:41:02.942Z,34.22
2022-11-27T05:42:05.790Z,31.42
2022-11-27T05:43:08.877Z,33.17
2022-11-27T05:44:16.869Z,33.65
2022-11-27T05:45:19.779Z,38.30
2022-11-27T05:46:23.897Z,37.70
2022-11-27T05:47:27.143Z,33.47
2022-11-27T05:48:29.986Z,30.75
2022-11-27T05:49:33.019Z,37.83
2022-11-27T05:50:35.820Z,39.28
2022-11-27T05:51:38.698Z,34.15
2022-11-27T05:52:41.423Z,36.80
2022-11-27T05:53:44.353Z,35.97
2022-11-27T05:54:47.267Z,43.13
2022-11-27T05:55:50.060Z,40.78
2022-11-27T05:56:53.039Z,41.63
2022-11-27T05:57:56.068Z,37.97
2022-11-27T05:58:59.064Z,35.17
2022-11-27T06:00:02.262Z,37.15
2022-11-27T06:01:07.840Z,36.47
2022-11-27T06:02:15.072Z,35.67
2022-11-27T06:03:21.412Z,37.85
2022-11-27T06:04:24.311Z,34.28
2022-11-27T06:05:27.178Z,29.92
2022-11-27T06:06:30.144Z,37.42
2022-11-27T06:07:33.378Z,35.97
2022-11-27T06:08:38.019Z,34.55
2022-11-27T06:09:40.866Z,35.17
2022-11-27T06:10:43.867Z,30.70
2022-11-27T06:11:46.820Z,36.00
2022-11-27T06:12:49.817Z,41.20
2022-11-27T06:13:52.656Z,37.97
2022-11-27T06:14:55.575Z,34.25
2022-11-27T06:15:58.704Z,38.70
2022-11-27T06:17:03.338Z,36.70
2022-11-27T06:18:07.152Z,38.00
2022-11-27T06:19:10.228Z,36.70
2022-11-27T06:20:13.351Z,33.42
2022-11-27T06:21:20.421Z,39.65
2022-11-27T06:22:23.270Z,36.55
2022-11-27T06:23:26.178Z,36.35
2022-11-27T06:24:29.068Z,42.25
2022-11-27T06:25:32.108Z,41.88
2022-11-27T06:26:35.306Z,37.97
2022-11-27T06:27:38.473Z,38.47
2022-11-27T06:28:42.424Z,35.42
2022-11-27T06:29:45.176Z,38.10
2022-11-27T06:30:48.179Z,47.95
2022-11-27T06:31:51.134Z,38.17
2022-11-27T06:32:54.421Z,40.45
2022-11-27T06:33:58.338Z,35.10
2022-11-27T06:35:01.660Z,33.53
2022-11-27T06:36:05.785Z,39.20
2022-11-27T06:37:12.986Z,38.17
2022-11-27T06:38:16.304Z,46.95
2022-11-27T06:39:19.300Z,40.55
2022-11-27T06:40:22.626Z,40.28
2022-11-27T06:41:27.419Z,38.20
2022-11-27T06:42:31.141Z,40.70
2022-11-27T06:43:35.056Z,38.65
2022-11-27T06:44:38.139Z,38.63
2022-11-27T06:45:41.367Z,44.83
2022-11-27T06:46:44.428Z,38.72
2022-11-27T06:47:47.539Z,36.85
2022-11-27T06:48:52.986Z,43.25
2022-11-27T06:49:55.868Z,39.20
2022-11-27T06:51:02.937Z,48.63
2022-11-27T06:52:05.936Z,48.42
2022-11-27T06:53:08.817Z,37.97
2022-11-27T06:54:11.780Z,46.58
2022-11-27T06:55:14.631Z,45.78
2022-11-27T06:56:20.262Z,40.08
2022-11-27T06:57:23.580Z,43.00
2022-11-27T06:58:30.840Z,42.53
2022-11-27T06:59:34.261Z,41.15
2022-11-27T07:00:37.641Z,38.28
2022-11-27T07:01:40.943Z,40.95
2022-11-27T07:02:43.815Z,44.70
2022-11-27T07:03:46.858Z,48.85
2022-11-27T07:04:49.624Z,40.38
2022-11-27T07:05:52.466Z,40.58
2022-11-27T07:06:55.827Z,46.65
2022-11-27T07:07:59.199Z,41.63
2022-11-27T07:09:02.077Z,48.97
2022-11-27T07:10:05.491Z,38.38
2022-11-27T07:11:16.139Z,41.35
2022-11-27T07:12:19.026Z,46.40
2022-11-27T07:13:21.970Z,42.40
2022-11-27T07:14:24.766Z,45.88
2022-11-27T07:15:27.709Z,43.20
2022-11-27T07:16:33.590Z,41.15
2022-11-27T07:17:38.285Z,47.00
2022-11-27T07:18:44.610Z,44.17
2022-11-27T07:19:47.882Z,43.90
2022-11-27T07:20:56.450Z,43.03
2022-11-27T07:21:59.706Z,44.38
2022-11-27T07:23:02.859Z,46.58
2022-11-27T07:24:06.107Z,53.17
2022-11-27T07:25:09.203Z,43.17
2022-11-27T07:26:13.758Z,46.28
2022-11-27T07:27:16.688Z,51.03
2022-11-27T07:28:20.988Z,45.00
2022-11-27T07:29:23.889Z,48.38
2022-11-27T07:30:26.771Z,43.60
2022-11-27T07:31:30.543Z,43.58
2022-11-27T07:32:33.584Z,46.42
2022-11-27T07:33:36.757Z,45.97
2022-11-27T07:34:39.904Z,51.58
2022-11-27T07:35:42.886Z,51.50
2022-11-27T07:36:45.863Z,46.75
2022-11-27T07:37:48.626Z,48.35
2022-11-27T07:38:51.962Z,43.63
2022-11-27T07:40:02.343Z,45.60
2022-11-27T07:41:06.948Z,45.50
2022-11-27T07:42:37.125Z,42.88
2022-11-27T07:43:34.192Z,44.90
2022-11-27T07:44:37.595Z,44.85
2022-11-27T07:45:40.398Z,49.00
2022-11-27T07:46:44.550Z,46.92
2022-11-27T07:47:47.497Z,48.70
2022-11-27T07:48:55.586Z,45.88
2022-11-27T07:50:00.692Z,46.97
2022-11-27T07:51:07.639Z,44.33
2022-11-27T07:52:10.436Z,40.35
2022-11-27T07:53:13.390Z,42.50
2022-11-27T07:54:16.177Z,39.05
2022-11-27T07:55:18.975Z,39.13
2022-11-27T07:56:22.024Z,42.53
2022-11-27T07:57:24.916Z,33.67
2022-11-27T07:58:27.841Z,42.67
2022-11-27T07:59:30.899Z,40.90
2022-11-27T08:00:34.489Z,42.72
2022-11-27T08:01:37.446Z,40.65
2022-11-27T08:02:40.471Z,37.92
2022-11-27T08:03:46.162Z,39.97
2022-11-27T08:04:49.336Z,37.35
2022-11-27T08:05:52.612Z,35.40
2022-11-27T08:06:57.728Z,42.83
2022-11-27T08:08:01.729Z,44.92
2022-11-27T08:09:04.841Z,41.35
2022-11-27T08:10:08.561Z,37.90
2022-11-27T08:11:23.923Z,37.72
2022-11-27T08:12:27.156Z,39.88
2022-11-27T08:13:30.086Z,40.75
2022-11-27T08:14:33.276Z,42.08
2022-11-27T08:15:37.640Z,35.40
2022-11-27T08:16:40.725Z,40.92
2022-11-27T08:17:44.155Z,40.25
2022-11-27T08:18:47.223Z,39.85
2022-11-27T08:19:50.083Z,35.90
2022-11-27T08:20:53.011Z,37.67
2022-11-27T08:21:57.741Z,37.00
2022-11-27T08:23:02.934Z,34.90
2022-11-27T08:24:06.384Z,34.10
2022-11-27T08:25:09.712Z,36.85
2022-11-27T08:26:13.613Z,34.63
2022-11-27T08:27:16.740Z,36.22
2022-11-27T08:28:19.492Z,33.92
2022-11-27T08:29:22.353Z,38.50
2022-11-27T08:30:25.701Z,34.17
2022-11-27T08:31:28.993Z,32.67
2022-11-27T08:32:31.986Z,33.70
2022-11-27T08:33:35.711Z,39.08
2022-11-27T08:34:38.906Z,42.45
2022-11-27T08:35:49.147Z,39.38
2022-11-27T08:36:52.132Z,43.67
2022-11-27T08:37:54.919Z,36.85
2022-11-27T08:38:58.482Z,42.55
2022-11-27T08:40:01.447Z,38.58
2022-11-27T08:41:06.542Z,35.63
2022-11-27T08:42:09.552Z,45.22
2022-11-27T08:43:12.463Z,40.75
2022-11-27T08:44:15.282Z,43.13
2022-11-27T08:45:20.505Z,39.20
2022-11-27T08:46:23.405Z,35.60
2022-11-27T08:47:26.476Z,40.88
2022-11-27T08:48:31.400Z,36.92
2022-11-27T08:49:34.504Z,30.45
2022-11-27T08:50:38.381Z,33.75
2022-11-27T08:51:41.663Z,36.55
2022-11-27T08:52:44.681Z,34.08
2022-11-27T08:53:47.664Z,32.05
2022-11-27T08:54:54.557Z,35.53
2022-11-27T08:56:12.896Z,30.23
2022-11-27T08:57:17.156Z,29.37
2022-11-27T08:58:22.011Z,31.70
2022-11-27T08:59:25.073Z,28.55
2022-11-27T09:00:28.401Z,29.67
2022-11-27T09:01:32.832Z,31.85
2022-11-27T09:02:35.748Z,35.65
2022-11-27T09:03:39.122Z,32.15
2022-11-27T09:04:42.359Z,32.33
2022-11-27T09:05:45.671Z,29.58
2022-11-27T09:06:56.788Z,30.52
2022-11-27T09:08:03.050Z,30.83
2022-11-27T09:09:06.467Z,30.80
2022-11-27T09:10:10.867Z,34.40
2022-11-27T09:11:15.847Z,31.65
2022-11-27T09:12:19.226Z,30.83
2022-11-27T09:13:22.164Z,27.20
2022-11-27T09:14:25.204Z,26.87
2022-11-27T09:15:28.442Z,30.95
2022-11-27T09:16:32.157Z,28.58
2022-11-27T09:17:35.454Z,30.73
2022-11-27T09:18:38.973Z,30.40
2022-11-27T09:19:41.805Z,28.62
2022-11-27T09:20:45.577Z,23.92
2022-11-27T09:21:50.982Z,29.33
2022-11-27T09:22:53.823Z,23.85
2022-11-27T09:23:58.779Z,26.62
2022-11-27T09:25:01.732Z,29.20
2022-11-27T09:26:07.981Z,27.48
2022-11-27T09:27:11.007Z,29.67
2022-11-27T09:28:14.059Z,28.45
2022-11-27T09:29:17.006Z,23.80
2022-11-27T09:30:20.163Z,27.05
2022-11-27T09:31:23.611Z,25.98
2022-11-27T09:32:26.532Z,31.20
2022-11-27T09:33:32.694Z,30.17
2022-11-27T09:34:37.726Z,27.20
2022-11-27T09:35:41.159Z,34.75
2022-11-27T09:36:44.387Z,31.08
2022-11-27T09:37:47.242Z,29.73
2022-11-27T09:38:50.461Z,31.87
2022-11-27T09:39:53.717Z,32.58
2022-11-27T09:41:03.548Z,30.58
2022-11-27T09:42:10.152Z,29.12
2022-11-27T09:43:16.638Z,32.08
2022-11-27T09:44:22.218Z,36.85
2022-11-27T09:45:27.435Z,39.92
2022-11-27T09:46:36.256Z,35.70
2022-11-27T09:47:44.780Z,34.28
2022-11-27T09:48:50.807Z,38.00
2022-11-27T09:49:59.797Z,38.30
2022-11-27T09:51:10.759Z,43.20
2022-11-27T09:52:50.603Z,46.33
2022-11-27T09:54:03.328Z,47.88
2022-11-27T09:55:26.525Z,46.83
2022-11-27T09:56:32.879Z,95.78
2022-11-27T09:57:39.609Z,48.65
2022-11-27T09:58:45.602Z,50.55
2022-11-27T09:59:54.089Z,71.37
2022-11-27T10:00:57.121Z,40.92
2022-11-27T10:02:00.085Z,36.72
2022-11-27T10:03:03.181Z,39.20
2022-11-27T10:04:06.817Z,44.97
2022-11-27T10:05:27.133Z,43.70
2022-11-27T10:07:00.529Z,47.13
2022-11-27T10:08:18.839Z,41.20
2022-11-27T10:09:34.551Z,43.63
2022-11-27T10:10:56.216Z,38.22
2022-11-27T10:12:07.279Z,37.45
2022-11-27T10:14:04.197Z,40.17
2022-11-27T10:15:42.556Z,42.28
2022-11-27T10:16:54.505Z,42.90
2022-11-27T10:18:15.415Z,43.60
2022-11-27T10:19:21.211Z,42.62
2022-11-27T10:20:36.552Z,51.78
2022-11-27T10:22:00.056Z,40.90
2022-11-27T10:23:15.568Z,39.00
2022-11-27T10:24:31.539Z,46.53
2022-11-27T10:25:43.633Z,47.65
2022-11-27T10:26:49.534Z,46.17
2022-11-27T10:28:06.995Z,47.15
2022-11-27T10:29:15.949Z,51.90
2022-11-27T10:30:22.083Z,52.20
2022-11-27T10:31:50.069Z,49.08
2022-11-27T10:32:57.442Z,49.63
2022-11-27T10:34:19.757Z,48.90
2022-11-27T10:35:25.398Z,48.38
2022-11-27T10:36:50.955Z,48.92
2022-11-27T10:38:05.254Z,50.42
2022-11-27T10:39:35.655Z,47.55
2022-11-27T10:41:28.471Z,45.30
2022-11-27T10:42:43.534Z,49.17
2022-11-27T10:43:48.871Z,47.95
2022-11-27T10:45:00.295Z,46.30
2022-11-27T10:46:22.079Z,54.28
2022-11-27T10:48:38.408Z,44.45
2022-11-27T10:49:42.958Z,47.80
2022-11-27T10:50:46.499Z,44.63
2022-11-27T10:51:49.451Z,55.70
2022-11-27T10:53:03.582Z,50.53
2022-11-27T10:54:12.687Z,45.05
2022-11-27T10:55:27.339Z,55.22
2022-11-27T10:57:08.854Z,48.08
2022-11-27T10:58:24.604Z,48.75
2022-11-27T10:59:34.895Z,47.90
2022-11-27T11:00:38.026Z,43.75
2022-11-27T11:01:49.958Z,44.47
2022-11-27T11:03:04.456Z,48.65
2022-11-27T11:04:31.242Z,48.87
2022-11-27T11:05:56.844Z,52.50
2022-11-27T11:06:58.730Z,58.40
2022-11-27T11:08:15.188Z,49.88
2022-11-27T11:09:25.440Z,46.92
2022-11-27T11:10:32.878Z,55.10
2022-11-27T11:11:35.687Z,47.50
2022-11-27T11:12:38.623Z,52.67
2022-11-27T11:13:41.666Z,53.87
2022-11-27T11:15:01.017Z,50.42
2022-11-27T11:16:08.826Z,55.58
2022-11-27T11:17:18.485Z,62.62
2022-11-27T11:18:28.042Z,57.55
2022-11-27T11:19:33.451Z,60.40
2022-11-27T11:20:36.459Z,60.47
2022-11-27T11:21:42.557Z,57.95
2022-11-27T11:22:49.094Z,64.35
2022-11-27T11:24:02.040Z,52.97
2022-11-27T11:25:05.600Z,55.58
2022-11-27T11:26:29.037Z,63.55
2022-11-27T11:27:32.687Z,53.55
2022-11-27T11:28:54.657Z,58.22
2022-11-27T11:30:06.381Z,54.97
2022-11-27T11:31:14.302Z,58.38
2022-11-27T11:32:20.549Z,47.55
2022-11-27T11:33:23.493Z,54.58
2022-11-27T11:34:29.185Z,60.72
2022-11-27T11:35:36.320Z,58.35
2022-11-27T11:36:39.996Z,54.67
2022-11-27T11:37:46.498Z,59.90
2022-11-27T11:38:50.558Z,57.00
2022-11-27T11:39:58.328Z,58.58
2022-11-27T11:41:08.000Z,59.75
2022-11-27T11:42:19.069Z,63.65
2022-11-27T11:43:33.525Z,56.13
2022-11-27T11:44:39.559Z,55.25
2022-11-27T11:45:50.709Z,54.78
2022-11-27T11:46:55.050Z,57.78
2022-11-27T11:48:04.259Z,58.17
2022-11-27T11:49:17.400Z,102.45
2022-11-27T11:51:08.427Z,162.25
2022-11-27T11:52:38.344Z,65.28
2022-11-27T11:53:45.772Z,126.80
2022-11-27T11:54:56.228Z,161.65
2022-11-27T11:56:39.858Z,61.03
2022-11-27T11:58:10.490Z,55.20
2022-11-27T11:59:42.129Z,58.15
2022-11-27T12:01:19.433Z,57.83
2022-11-27T12:02:19.830Z,55.10
2022-11-27T12:03:51.756Z,54.38
2022-11-27T12:05:24.606Z,57.92
2022-11-27T12:06:45.943Z,54.17
2022-11-27T12:08:15.000Z,54.83
2022-11-27T12:09:42.790Z,58.05
2022-11-27T12:10:54.040Z,55.95
2022-11-27T12:12:02.843Z,57.17
2022-11-27T12:13:25.961Z,52.90
2022-11-27T12:14:43.348Z,48.03
2022-11-27T12:16:20.062Z,43.35
2022-11-27T12:17:42.090Z,50.40
2022-11-27T12:19:08.124Z,51.72
2022-11-27T12:20:32.533Z,53.75
2022-11-27T12:21:42.599Z,55.45
2022-11-27T12:23:22.559Z,57.55
2022-11-27T12:24:43.108Z,52.62
2022-11-27T12:26:06.682Z,61.13
2022-11-27T12:27:45.979Z,67.00
2022-11-27T12:28:59.305Z,55.03
2022-11-27T12:30:19.322Z,54.70
2022-11-27T12:31:36.026Z,54.83
2022-11-27T12:33:14.621Z,53.75
2022-11-27T12:34:23.546Z,54.60
2022-11-27T12:35:42.598Z,52.95
2022-11-27T12:37:11.176Z,53.72
2022-11-27T12:38:22.631Z,53.87
2022-11-27T12:39:33.265Z,61.80
2022-11-27T12:40:56.067Z,59.28
2022-11-27T12:42:34.474Z,82.80
2022-11-27T12:43:51.077Z,67.65
2022-11-27T12:44:57.453Z,54.00
2022-11-27T12:46:10.799Z,53.33
2022-11-27T12:47:38.932Z,54.80
2022-11-27T12:49:10.835Z,56.15
2022-11-27T12:50:24.297Z,56.90
2022-11-27T12:51:38.709Z,56.08
2022-11-27T12:52:46.424Z,55.85
2022-11-27T12:53:55.809Z,57.62
2022-11-27T12:55:23.419Z,47.78
2022-11-27T12:56:42.137Z,60.22
2022-11-27T12:57:54.741Z,62.60
2022-11-27T12:59:23.348Z,61.92
2022-11-27T13:00:31.244Z,56.92
2022-11-27T13:01:41.262Z,58.20
2022-11-27T13:03:05.434Z,58.53
2022-11-27T13:04:37.940Z,51.58
2022-11-27T13:07:18.474Z,54.53
2022-11-27T13:08:49.601Z,51.10
2022-11-27T13:10:08.592Z,49.05
2022-11-27T13:11:15.833Z,60.42
2022-11-27T13:12:31.876Z,51.75
2022-11-27T13:14:01.103Z,55.00
2022-11-27T13:16:32.417Z,49.42
2022-11-27T13:17:42.715Z,44.85
2022-11-27T13:19:12.399Z,48.05
2022-11-27T13:20:21.316Z,46.37
2022-11-27T13:21:29.998Z,48.13
2022-11-27T13:22:36.403Z,40.60
2022-11-27T13:23:39.777Z,49.90
2022-11-27T13:24:46.502Z,50.67
2022-11-27T13:25:55.238Z,48.47
2022-11-27T13:27:01.374Z,65.15
2022-11-27T13:28:05.914Z,48.17
2022-11-27T13:29:27.666Z,45.50
2022-11-27T13:30:34.516Z,44.10
2022-11-27T13:31:39.672Z,45.67
2022-11-27T13:32:50.366Z,44.25
2022-11-27T13:34:00.028Z,41.45
2022-11-27T13:35:08.118Z,44.88
2022-11-27T13:36:30.028Z,44.35
2022-11-27T13:37:37.068Z,40.55
2022-11-27T13:38:42.528Z,47.80
2022-11-27T13:39:48.034Z,46.00
2022-11-27T13:40:56.293Z,44.03
2022-11-27T13:42:24.120Z,45.05
2022-11-27T13:43:46.081Z,44.88
2022-11-27T13:46:06.229Z,42.58
2022-11-27T13:47:16.100Z,40.42
2022-11-27T13:48:39.457Z,46.58
2022-11-27T13:49:43.803Z,40.85
2022-11-27T13:50:47.662Z,41.85
2022-11-27T13:51:50.940Z,42.05
2022-11-27T13:53:07.567Z,42.65
2022-11-27T13:54:17.539Z,44.30
2022-11-27T13:55:30.069Z,39.38
2022-11-27T13:56:33.309Z,37.85
2022-11-27T13:57:37.109Z,42.83
2022-11-27T13:58:42.450Z,43.00
2022-11-27T14:00:04.215Z,35.35
2022-11-27T14:01:17.292Z,45.85
2022-11-27T14:02:23.306Z,40.67
2022-11-27T14:03:28.985Z,37.50
2022-11-27T14:04:33.877Z,44.13
2022-11-27T14:05:39.315Z,45.58
2022-11-27T14:06:43.979Z,43.03
2022-11-27T14:07:50.199Z,39.67
2022-11-27T14:08:59.379Z,40.30
2022-11-27T14:10:13.109Z,37.75
2022-11-27T14:11:16.341Z,38.03
2022-11-27T14:12:27.231Z,40.12
2022-11-27T14:13:57.787Z,40.50
2022-11-27T14:15:03.779Z,44.05
2022-11-27T14:16:26.965Z,38.75
2022-11-27T14:17:43.977Z,40.50
2022-11-27T14:18:55.448Z,42.00
2022-11-27T14:20:04.241Z,44.13
2022-11-27T14:21:07.299Z,38.90
2022-11-27T14:22:48.490Z,42.05
2022-11-27T14:23:58.437Z,33.92
2022-11-27T14:25:23.543Z,36.15
2022-11-27T14:26:27.217Z,41.60
2022-11-27T14:27:36.194Z,36.42
2022-11-27T14:28:50.314Z,38.95
2022-11-27T14:29:53.820Z,40.28
2022-11-27T14:31:02.084Z,43.10
2022-11-27T14:32:13.847Z,39.15
2022-11-27T14:33:24.248Z,39.20
2022-11-27T14:34:27.031Z,38.10
2022-11-27T14:35:30.264Z,41.13
2022-11-27T14:36:35.761Z,38.42
2022-11-27T14:37:39.011Z,41.35
2022-11-27T14:38:47.412Z,35.85
2022-11-27T14:39:52.793Z,40.30
2022-11-27T14:41:26.581Z,38.10
2022-11-27T14:42:34.075Z,39.08
2022-11-27T14:43:39.335Z,43.55
2022-11-27T14:44:42.584Z,39.47
2022-11-27T14:45:48.864Z,36.00
2022-11-27T14:46:52.817Z,39.28